sensor_id;sensor_type;location;lat;lon;timestamp;P1;durP1;ratioP1;P2;durP2;ratioP2
44446;SDS011;30152;52.066;5.358;2022-12-07T07:53:14;6.65;;;1.70;;
44446;SDS011;30152;52.066;5.358;2022-12-07T07:55:40;6.22;;;1.90;;
44446;SDS011;30152;52.066;5.358;2022-12-07T07:58:06;10.48;;;1.60;;
44446;SDS011;30152;52.066;5.358;2022-12-07T08:00:32;7.03;;;1.67;;
44446;SDS011;30152;52.066;5.358;2022-12-07T08:02:59;7.63;;;1.55;;
44446;SDS011;30152;52.066;5.358;2022-12-07T08:05:26;7.18;;;1.65;;
44446;SDS011;30152;52.066;5.358;2022-12-07T08:07:52;5.53;;;1.50;;
44446;SDS011;30152;52.066;5.358;2022-12-07T08:10:18;4.03;;;1.20;;
44446;SDS011;30152;52.066;5.358;2022-12-07T08:12:44;6.85;;;1.75;;
44446;SDS011;30152;52.066;5.358;2022-12-07T08:15:30;5.85;;;1.48;;
44446;SDS011;30152;52.066;5.358;2022-12-07T08:17:59;8.60;;;1.85;;
44446;SDS011;30152;52.066;5.358;2022-12-07T08:20:25;9.10;;;2.28;;
44446;SDS011;30152;52.066;5.358;2022-12-07T08:22:51;5.97;;;2.08;;
44446;SDS011;30152;52.066;5.358;2022-12-07T08:25:18;7.72;;;1.63;;
44446;SDS011;30152;52.066;5.358;2022-12-07T08:27:44;5.82;;;1.20;;
44446;SDS011;30152;52.066;5.358;2022-12-07T08:30:10;8.57;;;1.77;;
44446;SDS011;30152;52.066;5.358;2022-12-07T08:32:36;4.70;;;1.33;;
44446;SDS011;30152;52.066;5.358;2022-12-07T08:35:02;6.10;;;1.30;;
44446;SDS011;30152;52.066;5.358;2022-12-07T08:37:27;4.35;;;1.30;;
44446;SDS011;30152;52.066;5.358;2022-12-07T08:39:55;7.70;;;1.48;;
44446;SDS011;30152;52.066;5.358;2022-12-07T08:42:20;9.10;;;1.00;;
44446;SDS011;30152;52.066;5.358;2022-12-07T08:44:48;8.68;;;1.35;;
44446;SDS011;30152;52.066;5.358;2022-12-07T08:47:13;7.32;;;1.33;;
44446;SDS011;30152;52.066;5.358;2022-12-07T08:49:40;9.30;;;1.48;;
44446;SDS011;30152;52.066;5.358;2022-12-07T08:52:10;6.05;;;1.10;;
44446;SDS011;30152;52.066;5.358;2022-12-07T08:54:36;5.80;;;1.00;;
44446;SDS011;30152;52.066;5.358;2022-12-07T08:57:04;6.25;;;1.10;;
44446;SDS011;30152;52.066;5.358;2022-12-07T08:59:31;6.88;;;1.10;;
44446;SDS011;30152;52.066;5.358;2022-12-07T09:01:59;6.65;;;1.20;;
44446;SDS011;30152;52.066;5.358;2022-12-07T09:04:25;6.00;;;1.27;;
44446;SDS011;30152;52.066;5.358;2022-12-07T09:06:51;7.65;;;1.20;;
44446;SDS011;30152;52.066;5.358;2022-12-07T09:09:17;5.85;;;1.38;;
44446;SDS011;30152;52.066;5.358;2022-12-07T09:11:46;10.43;;;1.55;;
44446;SDS011;30152;52.066;5.358;2022-12-07T09:14:13;7.90;;;1.70;;
44446;SDS011;30152;52.066;5.358;2022-12-07T09:16:39;12.70;;;1.83;;
44446;SDS011;30152;52.066;5.358;2022-12-07T09:19:05;10.07;;;1.95;;
44446;SDS011;30152;52.066;5.358;2022-12-07T09:21:30;6.80;;;1.67;;
44446;SDS011;30152;52.066;5.358;2022-12-07T09:23:56;6.07;;;1.70;;
44446;SDS011;30152;52.066;5.358;2022-12-07T09:26:23;8.68;;;1.60;;
44446;SDS011;30152;52.066;5.358;2022-12-07T09:28:51;12.57;;;2.33;;
44446;SDS011;30152;52.066;5.358;2022-12-07T09:31:16;12.85;;;2.25;;
44446;SDS011;30152;52.066;5.358;2022-12-07T09:33:43;8.10;;;2.03;;
44446;SDS011;30152;52.066;5.358;2022-12-07T09:36:10;8.63;;;2.08;;
44446;SDS011;30152;52.066;5.358;2022-12-07T09:38:35;8.13;;;2.17;;
44446;SDS011;30152;52.066;5.358;2022-12-07T09:41:05;14.63;;;2.30;;
44446;SDS011;30152;52.066;5.358;2022-12-07T09:43:32;7.97;;;2.20;;
44446;SDS011;30152;52.066;5.358;2022-12-07T09:46:04;7.82;;;2.03;;
44446;SDS011;30152;52.066;5.358;2022-12-07T09:48:34;7.63;;;1.92;;
44446;SDS011;30152;52.066;5.358;2022-12-07T09:51:13;6.07;;;2.40;;
44446;SDS011;30152;52.066;5.358;2022-12-07T09:53:42;11.77;;;2.25;;
44446;SDS011;30152;52.066;5.358;2022-12-07T09:56:14;8.82;;;2.00;;
44446;SDS011;30152;52.066;5.358;2022-12-07T09:58:42;11.18;;;2.35;;
44446;SDS011;30152;52.066;5.358;2022-12-07T10:03:37;6.07;;;2.30;;
44446;SDS011;30152;52.066;5.358;2022-12-07T10:06:05;7.45;;;2.22;;
44446;SDS011;30152;52.066;5.358;2022-12-07T10:08:32;7.30;;;1.90;;
44446;SDS011;30152;52.066;5.358;2022-12-07T10:11:01;8.35;;;2.03;;
44446;SDS011;30152;52.066;5.358;2022-12-07T10:16:02;12.32;;;2.55;;
44446;SDS011;30152;52.066;5.358;2022-12-07T10:18:34;10.80;;;2.67;;
44446;SDS011;30152;52.066;5.358;2022-12-07T10:21:16;10.43;;;2.38;;
44446;SDS011;30152;52.066;5.358;2022-12-07T10:31:44;7.20;;;2.60;;
44446;SDS011;30152;52.066;5.358;2022-12-07T10:34:24;11.80;;;2.63;;
44446;SDS011;30152;52.066;5.358;2022-12-07T10:37:25;6.68;;;2.38;;
44446;SDS011;30152;52.066;5.358;2022-12-07T10:39:55;11.73;;;2.38;;
44446;SDS011;30152;52.066;5.358;2022-12-07T10:42:30;10.60;;;2.15;;
44446;SDS011;30152;52.066;5.358;2022-12-07T10:45:15;11.18;;;2.25;;
44446;SDS011;30152;52.066;5.358;2022-12-07T10:47:47;12.48;;;2.25;;
44446;SDS011;30152;52.066;5.358;2022-12-07T10:50:53;7.25;;;2.35;;
44446;SDS011;30152;52.066;5.358;2022-12-07T10:56:20;7.05;;;1.77;;
44446;SDS011;30152;52.066;5.358;2022-12-07T11:01:22;9.43;;;1.75;;
44446;SDS011;30152;52.066;5.358;2022-12-07T11:03:56;9.55;;;1.63;;
44446;SDS011;30152;52.066;5.358;2022-12-07T11:06:47;7.55;;;1.30;;
44446;SDS011;30152;52.066;5.358;2022-12-07T11:09:25;7.78;;;1.20;;
44446;SDS011;30152;52.066;5.358;2022-12-07T11:12:00;12.30;;;1.77;;
44446;SDS011;30152;52.066;5.358;2022-12-07T11:17:04;12.07;;;2.25;;
44446;SDS011;30152;52.066;5.358;2022-12-07T11:19:40;8.30;;;2.33;;
44446;SDS011;30152;52.066;5.358;2022-12-07T11:30:34;8.32;;;1.85;;
44446;SDS011;30152;52.066;5.358;2022-12-07T11:33:09;10.20;;;1.88;;
44446;SDS011;30152;52.066;5.358;2022-12-07T11:38:22;5.63;;;2.00;;
44446;SDS011;30152;52.066;5.358;2022-12-07T11:40:49;10.77;;;1.77;;
44446;SDS011;30152;52.066;5.358;2022-12-07T11:43:26;5.00;;;1.40;;
44446;SDS011;30152;52.066;5.358;2022-12-07T11:48:29;11.23;;;1.67;;
44446;SDS011;30152;52.066;5.358;2022-12-07T11:51:00;8.70;;;1.50;;
44446;SDS011;30152;52.066;5.358;2022-12-07T11:53:31;7.03;;;1.35;;
44446;SDS011;30152;52.066;5.358;2022-12-07T11:58:45;10.20;;;1.30;;
44446;SDS011;30152;52.066;5.358;2022-12-07T12:03:45;8.02;;;1.45;;
44446;SDS011;30152;52.066;5.358;2022-12-07T12:06:12;7.80;;;1.35;;
44446;SDS011;30152;52.066;5.358;2022-12-07T12:08:42;8.07;;;1.77;;
44446;SDS011;30152;52.066;5.358;2022-12-07T12:19:35;5.15;;;1.48;;
44446;SDS011;30152;52.066;5.358;2022-12-07T12:22:12;10.82;;;1.73;;
44446;SDS011;30152;52.066;5.358;2022-12-07T12:24:41;7.55;;;1.40;;
44446;SDS011;30152;52.066;5.358;2022-12-07T12:27:09;6.80;;;1.17;;
44446;SDS011;30152;52.066;5.358;2022-12-07T12:29:42;7.30;;;1.38;;
44446;SDS011;30152;52.066;5.358;2022-12-07T12:32:15;9.88;;;1.48;;
44446;SDS011;30152;52.066;5.358;2022-12-07T12:42:46;11.05;;;1.73;;
44446;SDS011;30152;52.066;5.358;2022-12-07T12:45:18;4.70;;;0.95;;
44446;SDS011;30152;52.066;5.358;2022-12-07T12:47:52;7.97;;;1.58;;
44446;SDS011;30152;52.066;5.358;2022-12-07T12:52:55;8.73;;;1.60;;
44446;SDS011;30152;52.066;5.358;2022-12-07T12:55:29;8.80;;;1.55;;
44446;SDS011;30152;52.066;5.358;2022-12-07T13:00:45;8.88;;;1.50;;
44446;SDS011;30152;52.066;5.358;2022-12-07T13:03:22;7.13;;;1.33;;
44446;SDS011;30152;52.066;5.358;2022-12-07T13:08:44;8.25;;;1.30;;
44446;SDS011;30152;52.066;5.358;2022-12-07T13:11:20;5.13;;;1.17;;
44446;SDS011;30152;52.066;5.358;2022-12-07T13:17:12;7.53;;;1.58;;
44446;SDS011;30152;52.066;5.358;2022-12-07T13:20:00;12.50;;;1.70;;
44446;SDS011;30152;52.066;5.358;2022-12-07T13:24:57;10.32;;;1.45;;
44446;SDS011;30152;52.066;5.358;2022-12-07T13:27:30;10.77;;;1.83;;
44446;SDS011;30152;52.066;5.358;2022-12-07T13:29:56;6.18;;;1.48;;
44446;SDS011;30152;52.066;5.358;2022-12-07T13:32:26;11.82;;;1.40;;
44446;SDS011;30152;52.066;5.358;2022-12-07T13:34:53;5.93;;;1.10;;
44446;SDS011;30152;52.066;5.358;2022-12-07T13:39:47;6.57;;;1.48;;
44446;SDS011;30152;52.066;5.358;2022-12-07T13:42:30;9.60;;;1.73;;
44446;SDS011;30152;52.066;5.358;2022-12-07T13:44:57;5.88;;;1.33;;
44446;SDS011;30152;52.066;5.358;2022-12-07T13:50:00;7.78;;;1.77;;
44446;SDS011;30152;52.066;5.358;2022-12-07T13:52:26;13.40;;;1.55;;
44446;SDS011;30152;52.066;5.358;2022-12-07T13:57:22;8.18;;;1.60;;
44446;SDS011;30152;52.066;5.358;2022-12-07T13:59:52;5.65;;;1.05;;
44446;SDS011;30152;52.066;5.358;2022-12-07T14:04:45;5.75;;;1.13;;
44446;SDS011;30152;52.066;5.358;2022-12-07T14:07:24;10.43;;;1.40;;
44446;SDS011;30152;52.066;5.358;2022-12-07T14:09:55;8.45;;;1.30;;
44446;SDS011;30152;52.066;5.358;2022-12-07T14:12:26;13.63;;;1.67;;
44446;SDS011;30152;52.066;5.358;2022-12-07T14:14:53;6.38;;;1.52;;
44446;SDS011;30152;52.066;5.358;2022-12-07T14:17:20;9.10;;;1.38;;
44446;SDS011;30152;52.066;5.358;2022-12-07T14:22:22;9.30;;;1.20;;
44446;SDS011;30152;52.066;5.358;2022-12-07T14:24:47;8.00;;;1.35;;
44446;SDS011;30152;52.066;5.358;2022-12-07T14:27:17;6.90;;;1.75;;
44446;SDS011;30152;52.066;5.358;2022-12-07T14:29:44;13.20;;;1.80;;
44446;SDS011;30152;52.066;5.358;2022-12-07T14:32:18;9.23;;;1.35;;
44446;SDS011;30152;52.066;5.358;2022-12-07T14:35:02;7.78;;;1.20;;
44446;SDS011;30152;52.066;5.358;2022-12-07T14:37:35;10.75;;;1.25;;
44446;SDS011;30152;52.066;5.358;2022-12-07T14:40:02;7.05;;;1.27;;
44446;SDS011;30152;52.066;5.358;2022-12-07T14:42:28;6.43;;;0.93;;
44446;SDS011;30152;52.066;5.358;2022-12-07T14:44:56;5.80;;;1.33;;
44446;SDS011;30152;52.066;5.358;2022-12-07T14:47:22;5.50;;;0.95;;
44446;SDS011;30152;52.066;5.358;2022-12-07T14:49:48;7.50;;;1.30;;
44446;SDS011;30152;52.066;5.358;2022-12-07T14:52:16;5.35;;;0.82;;
44446;SDS011;30152;52.066;5.358;2022-12-07T14:54:47;5.95;;;1.05;;
44446;SDS011;30152;52.066;5.358;2022-12-07T14:57:13;8.13;;;1.30;;
44446;SDS011;30152;52.066;5.358;2022-12-07T14:59:39;6.25;;;0.90;;
44446;SDS011;30152;52.066;5.358;2022-12-07T15:02:05;3.47;;;0.98;;
44446;SDS011;30152;52.066;5.358;2022-12-07T15:04:34;7.70;;;1.55;;
44446;SDS011;30152;52.066;5.358;2022-12-07T15:07:01;6.30;;;1.45;;
44446;SDS011;30152;52.066;5.358;2022-12-07T15:09:29;7.32;;;1.20;;
44446;SDS011;30152;52.066;5.358;2022-12-07T15:11:54;5.68;;;1.38;;
44446;SDS011;30152;52.066;5.358;2022-12-07T15:14:20;6.20;;;1.20;;
44446;SDS011;30152;52.066;5.358;2022-12-07T15:16:46;9.13;;;1.02;;
44446;SDS011;30152;52.066;5.358;2022-12-07T15:19:13;4.45;;;1.02;;
44446;SDS011;30152;52.066;5.358;2022-12-07T15:21:41;6.97;;;1.17;;
44446;SDS011;30152;52.066;5.358;2022-12-07T15:24:08;11.40;;;1.35;;
44446;SDS011;30152;52.066;5.358;2022-12-07T15:26:37;8.15;;;1.73;;
44446;SDS011;30152;52.066;5.358;2022-12-07T15:29:04;9.32;;;1.85;;
44446;SDS011;30152;52.066;5.358;2022-12-07T15:31:30;7.30;;;1.52;;
44446;SDS011;30152;52.066;5.358;2022-12-07T15:33:56;5.28;;;1.30;;
44446;SDS011;30152;52.066;5.358;2022-12-07T15:36:23;2.95;;;0.95;;
44446;SDS011;30152;52.066;5.358;2022-12-07T15:38:50;5.60;;;1.00;;
44446;SDS011;30152;52.066;5.358;2022-12-07T15:41:16;7.65;;;1.27;;
44446;SDS011;30152;52.066;5.358;2022-12-07T15:43:42;6.57;;;1.70;;
44446;SDS011;30152;52.066;5.358;2022-12-07T15:46:31;7.63;;;1.40;;
44446;SDS011;30152;52.066;5.358;2022-12-07T15:48:57;6.53;;;1.30;;
44446;SDS011;30152;52.066;5.358;2022-12-07T15:51:24;7.38;;;1.40;;
44446;SDS011;30152;52.066;5.358;2022-12-07T15:53:49;9.40;;;1.50;;
44446;SDS011;30152;52.066;5.358;2022-12-07T15:56:15;7.00;;;1.60;;
44446;SDS011;30152;52.066;5.358;2022-12-07T15:58:41;5.13;;;1.67;;
44446;SDS011;30152;52.066;5.358;2022-12-07T16:01:10;9.77;;;1.35;;
44446;SDS011;30152;52.066;5.358;2022-12-07T16:03:37;7.82;;;1.55;;
44446;SDS011;30152;52.066;5.358;2022-12-07T16:06:03;5.07;;;1.42;;
44446;SDS011;30152;52.066;5.358;2022-12-07T16:08:29;6.70;;;1.33;;
44446;SDS011;30152;52.066;5.358;2022-12-07T16:10:54;6.53;;;1.27;;
44446;SDS011;30152;52.066;5.358;2022-12-07T16:13:20;7.13;;;1.45;;
44446;SDS011;30152;52.066;5.358;2022-12-07T16:15:46;6.53;;;1.80;;
44446;SDS011;30152;52.066;5.358;2022-12-07T16:18:12;5.68;;;1.52;;
44446;SDS011;30152;52.066;5.358;2022-12-07T16:20:38;5.78;;;1.58;;
44446;SDS011;30152;52.066;5.358;2022-12-07T16:23:05;5.38;;;1.23;;
44446;SDS011;30152;52.066;5.358;2022-12-07T16:25:30;6.57;;;1.42;;
44446;SDS011;30152;52.066;5.358;2022-12-07T16:27:56;6.63;;;1.85;;
44446;SDS011;30152;52.066;5.358;2022-12-07T16:30:21;6.45;;;1.70;;
44446;SDS011;30152;52.066;5.358;2022-12-07T16:32:47;13.00;;;4.45;;
44446;SDS011;30152;52.066;5.358;2022-12-07T16:35:13;9.27;;;1.83;;
44446;SDS011;30152;52.066;5.358;2022-12-07T16:37:41;6.45;;;1.80;;
44446;SDS011;30152;52.066;5.358;2022-12-07T16:40:07;7.65;;;1.70;;
44446;SDS011;30152;52.066;5.358;2022-12-07T16:42:34;6.38;;;1.98;;
44446;SDS011;30152;52.066;5.358;2022-12-07T16:45:00;5.85;;;1.60;;
44446;SDS011;30152;52.066;5.358;2022-12-07T16:47:28;6.32;;;1.92;;
44446;SDS011;30152;52.066;5.358;2022-12-07T16:49:53;6.57;;;1.67;;
44446;SDS011;30152;52.066;5.358;2022-12-07T16:52:20;10.00;;;2.03;;
44446;SDS011;30152;52.066;5.358;2022-12-07T16:54:46;8.93;;;2.00;;
44446;SDS011;30152;52.066;5.358;2022-12-07T16:57:13;6.30;;;1.60;;
44446;SDS011;30152;52.066;5.358;2022-12-07T16:59:39;4.82;;;1.95;;
44446;SDS011;30152;52.066;5.358;2022-12-07T17:02:04;5.78;;;1.80;;
44446;SDS011;30152;52.066;5.358;2022-12-07T17:04:31;7.07;;;2.35;;
44446;SDS011;30152;52.066;5.358;2022-12-07T17:06:57;6.43;;;2.00;;
44446;SDS011;30152;52.066;5.358;2022-12-07T17:09:23;6.00;;;1.98;;
44446;SDS011;30152;52.066;5.358;2022-12-07T17:11:49;7.47;;;2.70;;
44446;SDS011;30152;52.066;5.358;2022-12-07T17:14:16;9.40;;;2.63;;
44446;SDS011;30152;52.066;5.358;2022-12-07T17:17:00;9.30;;;2.20;;
44446;SDS011;30152;52.066;5.358;2022-12-07T17:19:26;7.10;;;2.10;;
44446;SDS011;30152;52.066;5.358;2022-12-07T17:21:52;6.18;;;2.35;;
44446;SDS011;30152;52.066;5.358;2022-12-07T17:24:18;9.05;;;2.17;;
44446;SDS011;30152;52.066;5.358;2022-12-07T17:26:45;6.60;;;2.03;;
44446;SDS011;30152;52.066;5.358;2022-12-07T17:29:12;6.13;;;2.08;;
44446;SDS011;30152;52.066;5.358;2022-12-07T17:31:39;9.55;;;2.30;;
44446;SDS011;30152;52.066;5.358;2022-12-07T17:34:09;10.10;;;2.80;;
44446;SDS011;30152;52.066;5.358;2022-12-07T17:36:37;5.18;;;1.98;;
44446;SDS011;30152;52.066;5.358;2022-12-07T17:39:07;8.75;;;2.28;;
44446;SDS011;30152;52.066;5.358;2022-12-07T17:41:34;8.27;;;2.50;;
44446;SDS011;30152;52.066;5.358;2022-12-07T17:44:20;7.95;;;2.40;;
44446;SDS011;30152;52.066;5.358;2022-12-07T17:46:48;8.52;;;2.78;;
44446;SDS011;30152;52.066;5.358;2022-12-07T17:49:19;7.75;;;2.65;;
44446;SDS011;30152;52.066;5.358;2022-12-07T17:51:45;7.32;;;2.15;;
44446;SDS011;30152;52.066;5.358;2022-12-07T17:54:30;11.88;;;2.63;;
44446;SDS011;30152;52.066;5.358;2022-12-07T17:56:56;11.20;;;3.67;;
44446;SDS011;30152;52.066;5.358;2022-12-07T17:59:23;8.43;;;3.55;;
44446;SDS011;30152;52.066;5.358;2022-12-07T18:01:51;10.90;;;3.60;;
44446;SDS011;30152;52.066;5.358;2022-12-07T18:04:18;8.57;;;2.58;;
44446;SDS011;30152;52.066;5.358;2022-12-07T18:06:43;8.85;;;3.78;;
44446;SDS011;30152;52.066;5.358;2022-12-07T18:09:10;8.02;;;2.33;;
44446;SDS011;30152;52.066;5.358;2022-12-07T18:11:35;9.05;;;3.10;;
44446;SDS011;30152;52.066;5.358;2022-12-07T18:16:28;10.07;;;2.42;;
44446;SDS011;30152;52.066;5.358;2022-12-07T18:19:03;9.93;;;2.65;;
44446;SDS011;30152;52.066;5.358;2022-12-07T18:23:58;10.93;;;2.75;;
44446;SDS011;30152;52.066;5.358;2022-12-07T18:26:26;12.10;;;3.38;;
44446;SDS011;30152;52.066;5.358;2022-12-07T18:28:52;9.63;;;3.70;;
44446;SDS011;30152;52.066;5.358;2022-12-07T18:31:18;9.93;;;3.95;;
44446;SDS011;30152;52.066;5.358;2022-12-07T18:33:45;9.40;;;4.38;;
44446;SDS011;30152;52.066;5.358;2022-12-07T18:36:12;12.15;;;4.68;;
44446;SDS011;30152;52.066;5.358;2022-12-07T18:38:39;12.38;;;4.40;;
44446;SDS011;30152;52.066;5.358;2022-12-07T18:41:12;12.98;;;4.25;;
44446;SDS011;30152;52.066;5.358;2022-12-07T18:43:38;9.80;;;3.42;;
44446;SDS011;30152;52.066;5.358;2022-12-07T18:46:14;10.35;;;3.53;;
44446;SDS011;30152;52.066;5.358;2022-12-07T18:48:43;11.18;;;3.53;;
44446;SDS011;30152;52.066;5.358;2022-12-07T18:51:09;12.65;;;3.70;;
44446;SDS011;30152;52.066;5.358;2022-12-07T18:53:36;10.68;;;3.30;;
44446;SDS011;30152;52.066;5.358;2022-12-07T18:56:10;7.65;;;3.05;;
44446;SDS011;30152;52.066;5.358;2022-12-07T18:58:38;10.23;;;3.83;;
44446;SDS011;30152;52.066;5.358;2022-12-07T19:01:24;9.02;;;4.00;;
44446;SDS011;30152;52.066;5.358;2022-12-07T19:03:50;12.75;;;3.97;;
44446;SDS011;30152;52.066;5.358;2022-12-07T19:06:16;9.27;;;3.78;;
44446;SDS011;30152;52.066;5.358;2022-12-07T19:08:41;10.98;;;3.83;;
44446;SDS011;30152;52.066;5.358;2022-12-07T19:11:07;10.40;;;3.50;;
44446;SDS011;30152;52.066;5.358;2022-12-07T19:13:52;11.48;;;5.38;;
44446;SDS011;30152;52.066;5.358;2022-12-07T19:16:18;14.63;;;6.25;;
44446;SDS011;30152;52.066;5.358;2022-12-07T19:18:44;12.40;;;4.00;;
44446;SDS011;30152;52.066;5.358;2022-12-07T19:21:09;9.55;;;3.97;;
44446;SDS011;30152;52.066;5.358;2022-12-07T19:23:35;9.43;;;3.63;;
44446;SDS011;30152;52.066;5.358;2022-12-07T19:26:00;9.00;;;3.88;;
44446;SDS011;30152;52.066;5.358;2022-12-07T19:28:26;11.63;;;4.32;;
44446;SDS011;30152;52.066;5.358;2022-12-07T19:30:52;9.02;;;3.70;;
44446;SDS011;30152;52.066;5.358;2022-12-07T19:33:18;11.10;;;4.45;;
44446;SDS011;30152;52.066;5.358;2022-12-07T19:35:44;9.98;;;4.47;;
44446;SDS011;30152;52.066;5.358;2022-12-07T19:38:10;13.45;;;4.47;;
44446;SDS011;30152;52.066;5.358;2022-12-07T19:40:35;10.95;;;4.20;;
44446;SDS011;30152;52.066;5.358;2022-12-07T19:43:01;10.00;;;5.18;;
44446;SDS011;30152;52.066;5.358;2022-12-07T19:45:27;14.55;;;6.30;;
44446;SDS011;30152;52.066;5.358;2022-12-07T19:47:54;12.35;;;4.30;;
44446;SDS011;30152;52.066;5.358;2022-12-07T19:50:20;10.98;;;4.47;;
44446;SDS011;30152;52.066;5.358;2022-12-07T19:52:45;13.77;;;5.20;;
44446;SDS011;30152;52.066;5.358;2022-12-07T19:55:11;12.55;;;4.65;;
44446;SDS011;30152;52.066;5.358;2022-12-07T19:57:37;11.32;;;4.75;;
44446;SDS011;30152;52.066;5.358;2022-12-07T20:00:03;9.10;;;4.60;;
44446;SDS011;30152;52.066;5.358;2022-12-07T20:02:29;13.02;;;5.10;;
44446;SDS011;30152;52.066;5.358;2022-12-07T20:04:55;15.85;;;5.68;;
44446;SDS011;30152;52.066;5.358;2022-12-07T20:07:20;15.57;;;5.18;;
44446;SDS011;30152;52.066;5.358;2022-12-07T20:09:46;12.68;;;5.55;;
44446;SDS011;30152;52.066;5.358;2022-12-07T20:12:12;10.05;;;4.80;;
44446;SDS011;30152;52.066;5.358;2022-12-07T20:15:16;15.52;;;4.93;;
44446;SDS011;30152;52.066;5.358;2022-12-07T20:17:42;16.15;;;5.47;;
44446;SDS011;30152;52.066;5.358;2022-12-07T20:20:08;11.38;;;5.20;;
44446;SDS011;30152;52.066;5.358;2022-12-07T20:22:34;10.23;;;4.68;;
44446;SDS011;30152;52.066;5.358;2022-12-07T20:25:00;13.10;;;5.93;;
44446;SDS011;30152;52.066;5.358;2022-12-07T20:27:26;13.98;;;6.13;;
44446;SDS011;30152;52.066;5.358;2022-12-07T20:29:52;14.57;;;6.75;;
44446;SDS011;30152;52.066;5.358;2022-12-07T20:32:18;12.57;;;5.97;;
44446;SDS011;30152;52.066;5.358;2022-12-07T20:34:44;18.75;;;5.88;;
44446;SDS011;30152;52.066;5.358;2022-12-07T20:37:10;13.07;;;5.60;;
44446;SDS011;30152;52.066;5.358;2022-12-07T20:39:36;15.57;;;6.03;;
44446;SDS011;30152;52.066;5.358;2022-12-07T20:42:02;13.13;;;5.78;;
44446;SDS011;30152;52.066;5.358;2022-12-07T20:44:47;14.15;;;6.10;;
44446;SDS011;30152;52.066;5.358;2022-12-07T20:47:13;15.13;;;5.75;;
44446;SDS011;30152;52.066;5.358;2022-12-07T20:49:39;14.43;;;6.45;;
44446;SDS011;30152;52.066;5.358;2022-12-07T20:52:05;14.30;;;6.10;;
44446;SDS011;30152;52.066;5.358;2022-12-07T20:54:31;13.38;;;5.80;;
44446;SDS011;30152;52.066;5.358;2022-12-07T20:56:57;13.50;;;5.47;;
44446;SDS011;30152;52.066;5.358;2022-12-07T20:59:23;14.80;;;6.25;;
44446;SDS011;30152;52.066;5.358;2022-12-07T21:01:49;14.57;;;5.72;;
44446;SDS011;30152;52.066;5.358;2022-12-07T21:04:14;27.27;;;7.82;;
44446;SDS011;30152;52.066;5.358;2022-12-07T21:06:42;16.30;;;5.90;;
44446;SDS011;30152;52.066;5.358;2022-12-07T21:09:08;14.25;;;5.68;;
44446;SDS011;30152;52.066;5.358;2022-12-07T21:11:35;11.57;;;4.60;;
44446;SDS011;30152;52.066;5.358;2022-12-07T21:14:01;14.45;;;5.18;;
44446;SDS011;30152;52.066;5.358;2022-12-07T21:16:28;12.68;;;4.95;;
44446;SDS011;30152;52.066;5.358;2022-12-07T21:18:54;11.88;;;5.00;;
44446;SDS011;30152;52.066;5.358;2022-12-07T21:21:21;16.67;;;5.32;;
44446;SDS011;30152;52.066;5.358;2022-12-07T21:23:49;9.63;;;4.35;;
44446;SDS011;30152;52.066;5.358;2022-12-07T21:26:17;9.20;;;3.80;;
44446;SDS011;30152;52.066;5.358;2022-12-07T21:28:44;10.52;;;4.78;;
44446;SDS011;30152;52.066;5.358;2022-12-07T21:31:10;10.35;;;4.88;;
44446;SDS011;30152;52.066;5.358;2022-12-07T21:33:36;12.70;;;5.68;;
44446;SDS011;30152;52.066;5.358;2022-12-07T21:36:03;12.13;;;5.13;;
44446;SDS011;30152;52.066;5.358;2022-12-07T21:38:30;17.25;;;5.53;;
44446;SDS011;30152;52.066;5.358;2022-12-07T21:40:55;13.25;;;4.88;;
44446;SDS011;30152;52.066;5.358;2022-12-07T21:43:21;8.88;;;4.35;;
44446;SDS011;30152;52.066;5.358;2022-12-07T21:45:50;11.77;;;4.57;;
44446;SDS011;30152;52.066;5.358;2022-12-07T21:48:19;9.68;;;4.32;;
44446;SDS011;30152;52.066;5.358;2022-12-07T21:50:45;10.73;;;4.93;;
44446;SDS011;30152;52.066;5.358;2022-12-07T21:53:12;14.73;;;5.32;;
44446;SDS011;30152;52.066;5.358;2022-12-07T21:55:41;11.05;;;4.43;;
44446;SDS011;30152;52.066;5.358;2022-12-07T21:58:08;8.70;;;4.00;;
44446;SDS011;30152;52.066;5.358;2022-12-07T22:00:34;15.05;;;4.60;;
44446;SDS011;30152;52.066;5.358;2022-12-07T22:03:00;12.02;;;4.63;;
44446;SDS011;30152;52.066;5.358;2022-12-07T22:05:26;12.32;;;5.05;;
44446;SDS011;30152;52.066;5.358;2022-12-07T22:07:51;14.07;;;6.03;;
44446;SDS011;30152;52.066;5.358;2022-12-07T22:10:17;11.90;;;4.93;;
44446;SDS011;30152;52.066;5.358;2022-12-07T22:12:56;14.95;;;6.43;;
44446;SDS011;30152;52.066;5.358;2022-12-07T22:15:22;10.88;;;4.85;;
44446;SDS011;30152;52.066;5.358;2022-12-07T22:17:48;10.18;;;5.22;;
44446;SDS011;30152;52.066;5.358;2022-12-07T22:20:14;13.80;;;5.97;;
44446;SDS011;30152;52.066;5.358;2022-12-07T22:22:41;13.00;;;5.85;;
44446;SDS011;30152;52.066;5.358;2022-12-07T22:25:07;10.40;;;5.47;;
44446;SDS011;30152;52.066;5.358;2022-12-07T22:27:33;12.13;;;5.28;;
44446;SDS011;30152;52.066;5.358;2022-12-07T22:29:59;12.18;;;5.05;;
44446;SDS011;30152;52.066;5.358;2022-12-07T22:32:24;10.60;;;5.30;;
